Tuesday, January 15, 2019, 6:31 PM EST
Back to Local

KSYR, Syracuse Hancock International Airport

Location: Syracuse, NY, United States Lat: 43.117
Local Time: 6:31 PM EST (23:31 GMT) Lon: -76.1
Time Zone: US/Eastern Elev: 410 ft

Show me the last for .
Show Coded

Time T Td Feel RH Dir Speed Gust Alt SLP Vis Weather Sky Remarks
2019-01-15 17:54 30 24 20 78 240° 13 - 30.08 30.09 8 OVC020 None
2019-01-15 16:54 30 23 22 74 240° 9 - 30.08 30.09 9 BKN020 OVC028 None
2019-01-15 15:54 30 23 22 74 230° 9 - 30.08 30.09 8 BKN020 OVC032 6-hr Precip Total (4pm): 0.00"
2019-01-15 15:04 30 24 20 78 230° 13 - 30.09 - 8 OVC020 None
2019-01-15 14:54 30 24 21 78 230° 12 - 30.09 30.09 9 BKN021 OVC042 1-hr Precip Total: Trace
2019-01-15 14:37 31 24 23 75 240° 9 - 30.09 - 8 BKN021 OVC042 1-hr Precip Total: Trace
2019-01-15 13:54 30 23 20 74 240° 13 - 30.08 30.09 8 -SN FEW027 OVC040 1-hr Precip Total: Trace
2019-01-15 13:15 30 22 20 71 240° 13 - 30.09 - 8 -SN BKN030 OVC040 1-hr Precip Total: Trace
2019-01-15 12:54 29 22 20 74 240° 10 - 30.10 30.11 8 -SN BKN023 OVC028 1-hr Precip Total: Trace
6-hr Precip Total (1pm): 0.00"
Snow depth: 7"
Water equiv. of snow on ground: 1.2"
6-hr Min Temp (1pm): 24.1°F
6-hr Max Temp (1pm): 28.9°F
2019-01-15 11:54 29 21 20 71 250° 9 - 30.13 30.14 9 -SN OVC021 1-hr Precip Total: Trace
2019-01-15 10:54 28 20 19 71 240° 9 - 30.15 30.16 9 -SN OVC021 1-hr Precip Total: Trace
2019-01-15 09:54 27 20 19 74 250° 7 - 30.16 30.17 9 -SN OVC027 1-hr Precip Total: Trace
6-hr Precip Total (10am): 0.00"
2019-01-15 09:19 27 19 18 73 250° 8 - 30.15 - 10 -SN BKN026 OVC035 None
2019-01-15 08:54 26 20 17 77 240° 9 - 30.14 30.16 10 SCT024 OVC035 None
2019-01-15 07:54 25 19 16 77 240° 8 - 30.14 30.15 10 OVC021 None
2019-01-15 06:54 24 19 15 80 240° 8 - 30.15 30.16 9 OVC025 Snow depth: 7"
6-hr Min Temp (7am): 15.1°F
6-hr Max Temp (7am): 24.1°F
2019-01-15 05:54 23 18 13 80 230° 9 - 30.14 30.15 9 OVC025 None
2019-01-15 04:54 22 17 13 81 240° 7 - 30.14 30.15 10 OVC027 None
2019-01-15 03:54 20 15 15 81 160° 3 - 30.15 30.16 10 FEW022 OVC028 None
2019-01-15 02:54 19 15 11 84 190° 6 - 30.18 30.19 10 OVC025 None
2019-01-15 01:54 17 14 8 87 190° 7 - 30.18 30.19 10 FEW018 OVC024 None
2019-01-15 01:45 17 13 8 83 190° 7 - 30.18 - 10 OVC023 None
2019-01-15 00:54 15 12 9 87 160° 3 - 30.19 30.21 10 OVC017 Snow depth: 7"
6-hr Min Temp (1am): 7.0°F
6-hr Max Temp (1am): 15.1°F
2019-01-14 23:54 11 9 - 91 - Calm - 30.20 30.21 9 BKN016 BKN200 24-hr Min Temp (12am): 1.0°F
24-hr Max Temp (12am): 21.9°F
2019-01-14 23:01 9 6 - 87 - Calm - 30.21 - 9 BKN014 BKN200 None
2019-01-14 22:54 8 5 - 86 - Calm - 30.20 30.22 10 SCT014 BKN200 None
2019-01-14 21:54 10 7 - 87 - Calm - 30.20 30.21 9 BKN200 None
2019-01-14 20:54 10 7 - 87 - Calm - 30.20 30.22 8 BKN200 None
2019-01-14 19:54 13 11 - 91 - Calm - 30.21 30.22 9 BKN200 None
2019-01-14 18:54 15 13 - 90 - Calm - 30.22 30.24 10 BKN200 Snow depth: 7"
6-hr Min Temp (7pm): 15.1°F
6-hr Max Temp (7pm): 21.9°F

Support USWX by starting your Amazon purchase here.